sensor_id;sensor_type;location;lat;lon;timestamp;P1;durP1;ratioP1;P2;durP2;ratioP2
32912;SDS011;19266;45.580;-122.680;2022-07-29T00:00:53;6.08;;;5.20;;
32912;SDS011;19266;45.580;-122.680;2022-07-29T00:03:22;6.20;;;5.00;;
32912;SDS011;19266;45.580;-122.680;2022-07-29T00:05:52;7.30;;;5.20;;
32912;SDS011;19266;45.580;-122.680;2022-07-29T00:08:24;8.15;;;5.08;;
32912;SDS011;19266;45.580;-122.680;2022-07-29T00:11:12;5.72;;;5.15;;
32912;SDS011;19266;45.580;-122.680;2022-07-29T00:13:42;7.28;;;4.90;;
32912;SDS011;19266;45.580;-122.680;2022-07-29T00:16:12;5.30;;;4.80;;
32912;SDS011;19266;45.580;-122.680;2022-07-29T00:18:42;6.67;;;5.00;;
32912;SDS011;19266;45.580;-122.680;2022-07-29T00:21:11;7.60;;;5.25;;
32912;SDS011;19266;45.580;-122.680;2022-07-29T00:23:41;5.95;;;5.37;;
32912;SDS011;19266;45.580;-122.680;2022-07-29T00:26:11;10.65;;;5.15;;
32912;SDS011;19266;45.580;-122.680;2022-07-29T00:28:41;5.25;;;4.80;;
32912;SDS011;19266;45.580;-122.680;2022-07-29T00:31:11;6.55;;;4.97;;
32912;SDS011;19266;45.580;-122.680;2022-07-29T00:33:42;5.78;;;5.12;;
32912;SDS011;19266;45.580;-122.680;2022-07-29T00:36:12;9.43;;;5.42;;
32912;SDS011;19266;45.580;-122.680;2022-07-29T00:38:41;5.65;;;5.00;;
32912;SDS011;19266;45.580;-122.680;2022-07-29T00:41:13;5.60;;;5.10;;
32912;SDS011;19266;45.580;-122.680;2022-07-29T00:43:42;7.20;;;5.28;;
32912;SDS011;19266;45.580;-122.680;2022-07-29T00:46:12;12.93;;;5.37;;
32912;SDS011;19266;45.580;-122.680;2022-07-29T00:48:42;5.40;;;4.90;;
32912;SDS011;19266;45.580;-122.680;2022-07-29T00:51:12;5.95;;;5.03;;
32912;SDS011;19266;45.580;-122.680;2022-07-29T00:53:42;10.10;;;5.50;;
32912;SDS011;19266;45.580;-122.680;2022-07-29T00:56:14;7.10;;;5.30;;
32912;SDS011;19266;45.580;-122.680;2022-07-29T00:58:44;8.10;;;5.10;;
32912;SDS011;19266;45.580;-122.680;2022-07-29T01:01:16;9.38;;;5.08;;
32912;SDS011;19266;45.580;-122.680;2022-07-29T01:03:46;7.20;;;5.53;;
32912;SDS011;19266;45.580;-122.680;2022-07-29T01:06:16;7.53;;;5.03;;
32912;SDS011;19266;45.580;-122.680;2022-07-29T01:08:47;5.78;;;5.28;;
32912;SDS011;19266;45.580;-122.680;2022-07-29T01:11:17;11.50;;;5.37;;
32912;SDS011;19266;45.580;-122.680;2022-07-29T01:13:48;7.60;;;5.55;;
32912;SDS011;19266;45.580;-122.680;2022-07-29T01:16:20;8.70;;;5.35;;
32912;SDS011;19266;45.580;-122.680;2022-07-29T01:18:50;6.45;;;5.35;;
32912;SDS011;19266;45.580;-122.680;2022-07-29T01:29:52;17.82;;;6.50;;
32912;SDS011;19266;45.580;-122.680;2022-07-29T01:32:25;6.47;;;5.55;;
32912;SDS011;19266;45.580;-122.680;2022-07-29T01:38:18;19.12;;;6.00;;
32912;SDS011;19266;45.580;-122.680;2022-07-29T01:40:53;8.08;;;5.67;;
32912;SDS011;19266;45.580;-122.680;2022-07-29T01:43:27;5.87;;;5.28;;
32912;SDS011;19266;45.580;-122.680;2022-07-29T01:46:04;6.03;;;5.40;;
32912;SDS011;19266;45.580;-122.680;2022-07-29T01:48:37;8.65;;;7.65;;
32912;SDS011;19266;45.580;-122.680;2022-07-29T01:53:54;6.45;;;5.40;;
32912;SDS011;19266;45.580;-122.680;2022-07-29T01:56:20;7.37;;;5.15;;
32912;SDS011;19266;45.580;-122.680;2022-07-29T01:58:52;7.08;;;5.60;;
32912;SDS011;19266;45.580;-122.680;2022-07-29T02:01:23;6.40;;;5.80;;
32912;SDS011;19266;45.580;-122.680;2022-07-29T02:03:54;9.48;;;5.30;;
32912;SDS011;19266;45.580;-122.680;2022-07-29T02:06:26;8.73;;;5.80;;
32912;SDS011;19266;45.580;-122.680;2022-07-29T02:08:58;9.88;;;5.67;;
32912;SDS011;19266;45.580;-122.680;2022-07-29T02:11:29;11.48;;;6.50;;
32912;SDS011;19266;45.580;-122.680;2022-07-29T02:14:01;31.05;;;6.70;;
32912;SDS011;19266;45.580;-122.680;2022-07-29T02:16:32;34.65;;;6.28;;
32912;SDS011;19266;45.580;-122.680;2022-07-29T02:19:04;5.87;;;5.20;;
32912;SDS011;19266;45.580;-122.680;2022-07-29T02:21:36;8.25;;;5.30;;
32912;SDS011;19266;45.580;-122.680;2022-07-29T02:24:08;5.92;;;5.28;;
32912;SDS011;19266;45.580;-122.680;2022-07-29T02:26:40;7.75;;;5.47;;
32912;SDS011;19266;45.580;-122.680;2022-07-29T02:29:10;5.83;;;5.25;;
32912;SDS011;19266;45.580;-122.680;2022-07-29T02:31:41;9.70;;;5.53;;
32912;SDS011;19266;45.580;-122.680;2022-07-29T02:34:11;7.78;;;5.37;;
32912;SDS011;19266;45.580;-122.680;2022-07-29T02:36:39;6.65;;;5.35;;
32912;SDS011;19266;45.580;-122.680;2022-07-29T02:39:11;5.87;;;5.37;;
32912;SDS011;19266;45.580;-122.680;2022-07-29T02:41:47;5.95;;;5.30;;
32912;SDS011;19266;45.580;-122.680;2022-07-29T02:44:19;6.05;;;5.40;;
32912;SDS011;19266;45.580;-122.680;2022-07-29T02:46:51;6.53;;;5.60;;
32912;SDS011;19266;45.580;-122.680;2022-07-29T02:49:30;6.12;;;5.60;;
32912;SDS011;19266;45.580;-122.680;2022-07-29T02:52:05;7.08;;;5.20;;
32912;SDS011;19266;45.580;-122.680;2022-07-29T02:55:01;6.67;;;5.45;;
32912;SDS011;19266;45.580;-122.680;2022-07-29T02:57:33;5.80;;;5.30;;
32912;SDS011;19266;45.580;-122.680;2022-07-29T03:00:14;23.40;;;5.60;;
32912;SDS011;19266;45.580;-122.680;2022-07-29T03:02:45;5.78;;;5.28;;
32912;SDS011;19266;45.580;-122.680;2022-07-29T03:05:17;17.05;;;5.60;;
32912;SDS011;19266;45.580;-122.680;2022-07-29T03:07:57;6.53;;;4.87;;
32912;SDS011;19266;45.580;-122.680;2022-07-29T03:10:29;6.67;;;5.10;;
32912;SDS011;19266;45.580;-122.680;2022-07-29T03:13:00;5.28;;;4.78;;
32912;SDS011;19266;45.580;-122.680;2022-07-29T03:15:30;6.75;;;4.80;;
32912;SDS011;19266;45.580;-122.680;2022-07-29T03:18:01;5.70;;;4.97;;
32912;SDS011;19266;45.580;-122.680;2022-07-29T03:20:32;5.90;;;4.83;;
32912;SDS011;19266;45.580;-122.680;2022-07-29T03:25:51;9.60;;;4.70;;
32912;SDS011;19266;45.580;-122.680;2022-07-29T03:28:21;6.30;;;4.30;;
32912;SDS011;19266;45.580;-122.680;2022-07-29T03:30:51;6.17;;;4.70;;
32912;SDS011;19266;45.580;-122.680;2022-07-29T03:33:21;5.58;;;4.60;;
32912;SDS011;19266;45.580;-122.680;2022-07-29T03:35:51;5.22;;;4.72;;
32912;SDS011;19266;45.580;-122.680;2022-07-29T03:38:21;5.15;;;4.53;;
32912;SDS011;19266;45.580;-122.680;2022-07-29T03:40:56;5.33;;;4.83;;
32912;SDS011;19266;45.580;-122.680;2022-07-29T03:43:23;4.78;;;4.30;;
32912;SDS011;19266;45.580;-122.680;2022-07-29T03:45:54;6.80;;;4.58;;
32912;SDS011;19266;45.580;-122.680;2022-07-29T03:48:23;6.53;;;4.62;;
32912;SDS011;19266;45.580;-122.680;2022-07-29T03:50:54;6.28;;;4.80;;
32912;SDS011;19266;45.580;-122.680;2022-07-29T03:53:23;8.30;;;5.00;;
32912;SDS011;19266;45.580;-122.680;2022-07-29T03:55:52;22.52;;;5.50;;
32912;SDS011;19266;45.580;-122.680;2022-07-29T03:58:22;27.42;;;5.80;;
32912;SDS011;19266;45.580;-122.680;2022-07-29T04:00:52;9.63;;;4.50;;
32912;SDS011;19266;45.580;-122.680;2022-07-29T04:03:21;12.47;;;4.60;;
32912;SDS011;19266;45.580;-122.680;2022-07-29T04:06:04;6.60;;;4.70;;
32912;SDS011;19266;45.580;-122.680;2022-07-29T04:08:36;6.90;;;4.78;;
32912;SDS011;19266;45.580;-122.680;2022-07-29T04:11:08;9.53;;;4.50;;
32912;SDS011;19266;45.580;-122.680;2022-07-29T04:13:39;6.47;;;4.78;;
32912;SDS011;19266;45.580;-122.680;2022-07-29T04:16:08;4.85;;;4.35;;
32912;SDS011;19266;45.580;-122.680;2022-07-29T04:18:38;6.55;;;4.15;;
32912;SDS011;19266;45.580;-122.680;2022-07-29T04:21:07;5.70;;;4.67;;
32912;SDS011;19266;45.580;-122.680;2022-07-29T04:23:36;4.95;;;4.45;;
32912;SDS011;19266;45.580;-122.680;2022-07-29T04:26:05;4.90;;;4.50;;
32912;SDS011;19266;45.580;-122.680;2022-07-29T04:28:36;14.30;;;4.60;;
32912;SDS011;19266;45.580;-122.680;2022-07-29T04:31:06;10.83;;;5.00;;
32912;SDS011;19266;45.580;-122.680;2022-07-29T04:33:35;5.60;;;4.05;;
32912;SDS011;19266;45.580;-122.680;2022-07-29T04:36:05;5.03;;;4.00;;
32912;SDS011;19266;45.580;-122.680;2022-07-29T04:38:34;5.85;;;4.20;;
32912;SDS011;19266;45.580;-122.680;2022-07-29T04:41:03;8.35;;;4.00;;
32912;SDS011;19266;45.580;-122.680;2022-07-29T04:43:39;6.53;;;4.20;;
32912;SDS011;19266;45.580;-122.680;2022-07-29T04:46:05;7.25;;;3.92;;
32912;SDS011;19266;45.580;-122.680;2022-07-29T04:48:34;5.03;;;4.00;;
32912;SDS011;19266;45.580;-122.680;2022-07-29T04:51:04;4.70;;;3.70;;
32912;SDS011;19266;45.580;-122.680;2022-07-29T04:53:33;5.05;;;3.83;;
32912;SDS011;19266;45.580;-122.680;2022-07-29T04:56:02;10.58;;;4.10;;
32912;SDS011;19266;45.580;-122.680;2022-07-29T04:58:32;7.33;;;3.67;;
32912;SDS011;19266;45.580;-122.680;2022-07-29T05:01:02;6.30;;;3.55;;
32912;SDS011;19266;45.580;-122.680;2022-07-29T05:03:31;6.20;;;3.50;;
32912;SDS011;19266;45.580;-122.680;2022-07-29T05:06:00;5.45;;;3.60;;
32912;SDS011;19266;45.580;-122.680;2022-07-29T05:08:29;3.80;;;3.50;;
32912;SDS011;19266;45.580;-122.680;2022-07-29T05:10:58;4.08;;;3.70;;
32912;SDS011;19266;45.580;-122.680;2022-07-29T05:13:27;4.60;;;3.80;;
32912;SDS011;19266;45.580;-122.680;2022-07-29T05:15:56;3.52;;;3.22;;
32912;SDS011;19266;45.580;-122.680;2022-07-29T05:18:29;4.78;;;3.40;;
32912;SDS011;19266;45.580;-122.680;2022-07-29T05:20:58;4.08;;;3.50;;
32912;SDS011;19266;45.580;-122.680;2022-07-29T05:23:27;3.95;;;3.12;;
32912;SDS011;19266;45.580;-122.680;2022-07-29T05:25:56;3.58;;;3.27;;
32912;SDS011;19266;45.580;-122.680;2022-07-29T05:28:25;4.15;;;3.35;;
32912;SDS011;19266;45.580;-122.680;2022-07-29T05:30:54;3.67;;;3.30;;
32912;SDS011;19266;45.580;-122.680;2022-07-29T05:33:23;3.15;;;2.85;;
32912;SDS011;19266;45.580;-122.680;2022-07-29T05:35:53;3.85;;;3.17;;
32912;SDS011;19266;45.580;-122.680;2022-07-29T05:38:22;5.87;;;3.50;;
32912;SDS011;19266;45.580;-122.680;2022-07-29T05:40:51;15.13;;;3.55;;
32912;SDS011;19266;45.580;-122.680;2022-07-29T05:43:20;4.83;;;3.20;;
32912;SDS011;19266;45.580;-122.680;2022-07-29T05:45:49;3.40;;;3.00;;
32912;SDS011;19266;45.580;-122.680;2022-07-29T05:48:19;5.90;;;3.60;;
32912;SDS011;19266;45.580;-122.680;2022-07-29T05:50:48;4.53;;;3.40;;
32912;SDS011;19266;45.580;-122.680;2022-07-29T05:53:17;4.45;;;3.33;;
32912;SDS011;19266;45.580;-122.680;2022-07-29T05:55:46;3.35;;;3.05;;
32912;SDS011;19266;45.580;-122.680;2022-07-29T05:58:16;5.53;;;3.25;;
32912;SDS011;19266;45.580;-122.680;2022-07-29T06:00:45;4.35;;;3.45;;
32912;SDS011;19266;45.580;-122.680;2022-07-29T06:03:14;5.05;;;3.52;;
32912;SDS011;19266;45.580;-122.680;2022-07-29T06:05:43;4.33;;;3.10;;
32912;SDS011;19266;45.580;-122.680;2022-07-29T06:08:13;4.05;;;3.42;;
32912;SDS011;19266;45.580;-122.680;2022-07-29T06:10:42;4.03;;;3.40;;
32912;SDS011;19266;45.580;-122.680;2022-07-29T06:13:11;4.60;;;3.30;;
32912;SDS011;19266;45.580;-122.680;2022-07-29T06:15:40;7.87;;;3.42;;
32912;SDS011;19266;45.580;-122.680;2022-07-29T06:18:09;7.47;;;3.30;;
32912;SDS011;19266;45.580;-122.680;2022-07-29T06:20:38;4.65;;;3.25;;
32912;SDS011;19266;45.580;-122.680;2022-07-29T06:23:08;4.33;;;3.22;;
32912;SDS011;19266;45.580;-122.680;2022-07-29T06:25:37;5.40;;;3.30;;
32912;SDS011;19266;45.580;-122.680;2022-07-29T06:28:08;17.37;;;4.35;;
32912;SDS011;19266;45.580;-122.680;2022-07-29T06:30:37;6.12;;;3.25;;
32912;SDS011;19266;45.580;-122.680;2022-07-29T06:33:06;3.67;;;3.30;;
32912;SDS011;19266;45.580;-122.680;2022-07-29T06:35:35;5.60;;;3.40;;
32912;SDS011;19266;45.580;-122.680;2022-07-29T06:38:06;3.83;;;3.33;;
32912;SDS011;19266;45.580;-122.680;2022-07-29T06:40:35;4.62;;;3.50;;
32912;SDS011;19266;45.580;-122.680;2022-07-29T06:43:22;5.03;;;3.35;;
32912;SDS011;19266;45.580;-122.680;2022-07-29T06:45:51;6.08;;;3.72;;
32912;SDS011;19266;45.580;-122.680;2022-07-29T06:48:20;5.92;;;3.62;;
32912;SDS011;19266;45.580;-122.680;2022-07-29T06:50:49;6.62;;;3.60;;
32912;SDS011;19266;45.580;-122.680;2022-07-29T06:53:18;4.10;;;3.70;;
32912;SDS011;19266;45.580;-122.680;2022-07-29T06:55:48;6.10;;;3.80;;
32912;SDS011;19266;45.580;-122.680;2022-07-29T06:58:17;5.10;;;3.65;;
32912;SDS011;19266;45.580;-122.680;2022-07-29T07:00:47;4.22;;;3.85;;
32912;SDS011;19266;45.580;-122.680;2022-07-29T07:03:17;4.45;;;3.72;;
32912;SDS011;19266;45.580;-122.680;2022-07-29T07:05:46;4.25;;;3.85;;
32912;SDS011;19266;45.580;-122.680;2022-07-29T07:08:15;5.15;;;3.85;;
32912;SDS011;19266;45.580;-122.680;2022-07-29T07:10:44;5.10;;;3.70;;
32912;SDS011;19266;45.580;-122.680;2022-07-29T07:13:13;5.08;;;4.00;;
32912;SDS011;19266;45.580;-122.680;2022-07-29T07:15:44;5.08;;;3.85;;
32912;SDS011;19266;45.580;-122.680;2022-07-29T07:18:15;16.48;;;4.00;;
32912;SDS011;19266;45.580;-122.680;2022-07-29T07:20:44;4.40;;;3.50;;
32912;SDS011;19266;45.580;-122.680;2022-07-29T07:23:13;5.30;;;3.87;;
32912;SDS011;19266;45.580;-122.680;2022-07-29T07:25:42;6.72;;;3.45;;
32912;SDS011;19266;45.580;-122.680;2022-07-29T07:28:11;6.80;;;3.92;;
32912;SDS011;19266;45.580;-122.680;2022-07-29T07:30:40;11.78;;;4.00;;
32912;SDS011;19266;45.580;-122.680;2022-07-29T07:33:10;5.08;;;3.80;;
32912;SDS011;19266;45.580;-122.680;2022-07-29T07:35:39;9.98;;;3.85;;
32912;SDS011;19266;45.580;-122.680;2022-07-29T07:38:08;13.72;;;3.92;;
32912;SDS011;19266;45.580;-122.680;2022-07-29T07:40:37;6.08;;;3.50;;
32912;SDS011;19266;45.580;-122.680;2022-07-29T07:43:06;4.53;;;3.77;;
32912;SDS011;19266;45.580;-122.680;2022-07-29T07:45:35;4.12;;;3.70;;
32912;SDS011;19266;45.580;-122.680;2022-07-29T07:48:04;4.30;;;3.62;;
32912;SDS011;19266;45.580;-122.680;2022-07-29T07:50:34;4.83;;;4.20;;
32912;SDS011;19266;45.580;-122.680;2022-07-29T07:53:03;4.78;;;4.00;;
32912;SDS011;19266;45.580;-122.680;2022-07-29T07:55:32;5.87;;;3.75;;
32912;SDS011;19266;45.580;-122.680;2022-07-29T07:58:01;4.72;;;4.00;;
32912;SDS011;19266;45.580;-122.680;2022-07-29T08:00:30;13.08;;;4.42;;
32912;SDS011;19266;45.580;-122.680;2022-07-29T08:03:00;19.15;;;4.75;;
32912;SDS011;19266;45.580;-122.680;2022-07-29T08:05:29;21.70;;;5.12;;
32912;SDS011;19266;45.580;-122.680;2022-07-29T08:07:58;10.35;;;4.22;;
32912;SDS011;19266;45.580;-122.680;2022-07-29T08:10:27;9.88;;;4.28;;
32912;SDS011;19266;45.580;-122.680;2022-07-29T08:13:14;7.58;;;4.20;;
32912;SDS011;19266;45.580;-122.680;2022-07-29T08:15:43;8.00;;;4.15;;
32912;SDS011;19266;45.580;-122.680;2022-07-29T08:18:13;7.22;;;3.77;;
32912;SDS011;19266;45.580;-122.680;2022-07-29T08:20:42;5.22;;;4.08;;
32912;SDS011;19266;45.580;-122.680;2022-07-29T08:23:11;4.92;;;3.98;;
32912;SDS011;19266;45.580;-122.680;2022-07-29T08:25:40;4.78;;;3.92;;
32912;SDS011;19266;45.580;-122.680;2022-07-29T08:28:10;6.03;;;4.25;;
32912;SDS011;19266;45.580;-122.680;2022-07-29T08:30:39;5.47;;;4.15;;
32912;SDS011;19266;45.580;-122.680;2022-07-29T08:33:08;4.37;;;3.92;;
32912;SDS011;19266;45.580;-122.680;2022-07-29T08:35:38;5.70;;;4.35;;
32912;SDS011;19266;45.580;-122.680;2022-07-29T08:38:07;7.33;;;4.05;;
32912;SDS011;19266;45.580;-122.680;2022-07-29T08:40:36;5.55;;;4.08;;
32912;SDS011;19266;45.580;-122.680;2022-07-29T08:43:09;4.85;;;3.92;;
32912;SDS011;19266;45.580;-122.680;2022-07-29T08:45:44;4.62;;;4.10;;
32912;SDS011;19266;45.580;-122.680;2022-07-29T08:48:23;5.22;;;4.20;;
32912;SDS011;19266;45.580;-122.680;2022-07-29T08:50:53;5.10;;;4.33;;
32912;SDS011;19266;45.580;-122.680;2022-07-29T08:53:25;7.42;;;4.20;;
32912;SDS011;19266;45.580;-122.680;2022-07-29T08:55:54;5.37;;;4.22;;
32912;SDS011;19266;45.580;-122.680;2022-07-29T08:58:24;6.62;;;4.25;;
32912;SDS011;19266;45.580;-122.680;2022-07-29T09:00:54;7.25;;;4.50;;
32912;SDS011;19266;45.580;-122.680;2022-07-29T09:03:24;5.10;;;4.15;;
32912;SDS011;19266;45.580;-122.680;2022-07-29T09:05:54;5.90;;;4.37;;
32912;SDS011;19266;45.580;-122.680;2022-07-29T09:08:23;6.67;;;4.50;;
32912;SDS011;19266;45.580;-122.680;2022-07-29T09:10:52;6.30;;;4.58;;
32912;SDS011;19266;45.580;-122.680;2022-07-29T09:13:23;7.17;;;4.45;;
32912;SDS011;19266;45.580;-122.680;2022-07-29T09:15:52;5.72;;;4.28;;
32912;SDS011;19266;45.580;-122.680;2022-07-29T09:21:04;5.42;;;4.37;;
32912;SDS011;19266;45.580;-122.680;2022-07-29T09:24:06;6.70;;;4.58;;
32912;SDS011;19266;45.580;-122.680;2022-07-29T09:26:37;10.28;;;5.12;;
32912;SDS011;19266;45.580;-122.680;2022-07-29T09:29:15;11.38;;;4.70;;
32912;SDS011;19266;45.580;-122.680;2022-07-29T09:31:40;7.78;;;4.33;;
32912;SDS011;19266;45.580;-122.680;2022-07-29T09:34:09;6.05;;;4.40;;
32912;SDS011;19266;45.580;-122.680;2022-07-29T09:36:43;5.53;;;4.28;;
32912;SDS011;19266;45.580;-122.680;2022-07-29T09:39:12;6.58;;;4.80;;
32912;SDS011;19266;45.580;-122.680;2022-07-29T09:41:45;7.72;;;4.60;;
32912;SDS011;19266;45.580;-122.680;2022-07-29T09:44:15;4.85;;;4.35;;
32912;SDS011;19266;45.580;-122.680;2022-07-29T09:47:03;5.80;;;4.62;;
32912;SDS011;19266;45.580;-122.680;2022-07-29T09:49:18;8.00;;;4.87;;
32912;SDS011;19266;45.580;-122.680;2022-07-29T09:51:47;6.35;;;4.60;;
32912;SDS011;19266;45.580;-122.680;2022-07-29T09:54:25;4.72;;;4.33;;
32912;SDS011;19266;45.580;-122.680;2022-07-29T09:56:55;5.55;;;4.50;;
32912;SDS011;19266;45.580;-122.680;2022-07-29T09:59:24;5.97;;;4.70;;
32912;SDS011;19266;45.580;-122.680;2022-07-29T10:01:54;6.78;;;4.85;;
32912;SDS011;19266;45.580;-122.680;2022-07-29T10:04:23;5.62;;;4.67;;
32912;SDS011;19266;45.580;-122.680;2022-07-29T10:06:55;5.25;;;4.30;;
32912;SDS011;19266;45.580;-122.680;2022-07-29T10:09:25;5.55;;;4.53;;
32912;SDS011;19266;45.580;-122.680;2022-07-29T10:12:04;5.58;;;4.33;;
32912;SDS011;19266;45.580;-122.680;2022-07-29T10:14:33;5.22;;;4.45;;
32912;SDS011;19266;45.580;-122.680;2022-07-29T10:17:03;7.25;;;4.60;;
32912;SDS011;19266;45.580;-122.680;2022-07-29T10:19:33;5.37;;;4.30;;
32912;SDS011;19266;45.580;-122.680;2022-07-29T10:22:03;7.55;;;4.95;;
32912;SDS011;19266;45.580;-122.680;2022-07-29T10:24:32;5.37;;;4.60;;
32912;SDS011;19266;45.580;-122.680;2022-07-29T10:27:02;5.15;;;4.62;;
32912;SDS011;19266;45.580;-122.680;2022-07-29T10:29:31;8.20;;;4.50;;
32912;SDS011;19266;45.580;-122.680;2022-07-29T10:43:44;7.80;;;5.37;;
32912;SDS011;19266;45.580;-122.680;2022-07-29T10:45:47;8.65;;;4.80;;
32912;SDS011;19266;45.580;-122.680;2022-07-29T10:48:16;5.83;;;5.05;;
32912;SDS011;19266;45.580;-122.680;2022-07-29T10:50:56;67.05;;;8.15;;
32912;SDS011;19266;45.580;-122.680;2022-07-29T10:56:05;23.67;;;5.83;;
32912;SDS011;19266;45.580;-122.680;2022-07-29T10:58:36;16.23;;;5.78;;
32912;SDS011;19266;45.580;-122.680;2022-07-29T11:01:28;9.33;;;5.33;;
32912;SDS011;19266;45.580;-122.680;2022-07-29T11:03:45;7.75;;;5.42;;
32912;SDS011;19266;45.580;-122.680;2022-07-29T11:06:14;9.23;;;5.40;;
32912;SDS011;19266;45.580;-122.680;2022-07-29T11:08:43;6.78;;;5.30;;
32912;SDS011;19266;45.580;-122.680;2022-07-29T11:11:31;6.78;;;5.30;;
32912;SDS011;19266;45.580;-122.680;2022-07-29T11:16:18;7.00;;;5.62;;
32912;SDS011;19266;45.580;-122.680;2022-07-29T11:21:35;7.70;;;5.17;;
32912;SDS011;19266;45.580;-122.680;2022-07-29T11:24:14;7.83;;;5.30;;
32912;SDS011;19266;45.580;-122.680;2022-07-29T11:26:43;6.97;;;5.17;;
32912;SDS011;19266;45.580;-122.680;2022-07-29T11:29:19;7.42;;;4.78;;
32912;SDS011;19266;45.580;-122.680;2022-07-29T11:31:50;6.10;;;4.45;;
32912;SDS011;19266;45.580;-122.680;2022-07-29T11:39:40;6.58;;;4.53;;
32912;SDS011;19266;45.580;-122.680;2022-07-29T11:44:53;5.42;;;4.65;;
32912;SDS011;19266;45.580;-122.680;2022-07-29T11:47:19;7.12;;;4.58;;
32912;SDS011;19266;45.580;-122.680;2022-07-29T11:49:47;8.28;;;5.10;;
32912;SDS011;19266;45.580;-122.680;2022-07-29T11:52:16;8.28;;;4.58;;
32912;SDS011;19266;45.580;-122.680;2022-07-29T11:54:47;6.67;;;4.85;;
32912;SDS011;19266;45.580;-122.680;2022-07-29T11:57:16;6.22;;;4.83;;
32912;SDS011;19266;45.580;-122.680;2022-07-29T11:59:46;5.90;;;4.20;;
32912;SDS011;19266;45.580;-122.680;2022-07-29T12:02:15;8.75;;;4.58;;
32912;SDS011;19266;45.580;-122.680;2022-07-29T12:04:57;7.40;;;4.45;;
32912;SDS011;19266;45.580;-122.680;2022-07-29T12:07:27;7.15;;;4.92;;
32912;SDS011;19266;45.580;-122.680;2022-07-29T12:09:56;6.97;;;5.00;;
32912;SDS011;19266;45.580;-122.680;2022-07-29T12:12:25;10.08;;;5.08;;
32912;SDS011;19266;45.580;-122.680;2022-07-29T12:14:55;7.03;;;5.67;;
32912;SDS011;19266;45.580;-122.680;2022-07-29T12:17:34;6.53;;;5.03;;
32912;SDS011;19266;45.580;-122.680;2022-07-29T12:19:56;9.33;;;5.12;;
32912;SDS011;19266;45.580;-122.680;2022-07-29T12:22:26;6.70;;;4.97;;
32912;SDS011;19266;45.580;-122.680;2022-07-29T12:24:55;5.53;;;4.75;;
32912;SDS011;19266;45.580;-122.680;2022-07-29T12:27:26;9.05;;;5.10;;
32912;SDS011;19266;45.580;-122.680;2022-07-29T12:30:02;5.97;;;4.65;;
32912;SDS011;19266;45.580;-122.680;2022-07-29T12:32:37;6.42;;;4.83;;
32912;SDS011;19266;45.580;-122.680;2022-07-29T12:35:10;7.75;;;4.60;;
32912;SDS011;19266;45.580;-122.680;2022-07-29T12:37:40;5.53;;;4.58;;
32912;SDS011;19266;45.580;-122.680;2022-07-29T12:40:11;6.83;;;4.62;;
32912;SDS011;19266;45.580;-122.680;2022-07-29T12:42:40;6.90;;;4.70;;
32912;SDS011;19266;45.580;-122.680;2022-07-29T12:45:09;6.92;;;5.00;;
32912;SDS011;19266;45.580;-122.680;2022-07-29T12:47:51;8.08;;;4.50;;
32912;SDS011;19266;45.580;-122.680;2022-07-29T12:50:20;9.05;;;4.80;;
32912;SDS011;19266;45.580;-122.680;2022-07-29T12:52:49;6.00;;;4.60;;
32912;SDS011;19266;45.580;-122.680;2022-07-29T12:58:05;6.05;;;4.60;;
32912;SDS011;19266;45.580;-122.680;2022-07-29T13:00:34;19.48;;;5.20;;
32912;SDS011;19266;45.580;-122.680;2022-07-29T13:03:03;11.63;;;5.00;;
32912;SDS011;19266;45.580;-122.680;2022-07-29T13:05:39;6.85;;;4.50;;
32912;SDS011;19266;45.580;-122.680;2022-07-29T13:08:12;7.50;;;4.15;;
32912;SDS011;19266;45.580;-122.680;2022-07-29T13:10:41;7.87;;;4.65;;
32912;SDS011;19266;45.580;-122.680;2022-07-29T13:13:13;8.80;;;4.55;;
32912;SDS011;19266;45.580;-122.680;2022-07-29T13:15:42;7.30;;;4.70;;
32912;SDS011;19266;45.580;-122.680;2022-07-29T13:18:30;7.00;;;4.70;;
32912;SDS011;19266;45.580;-122.680;2022-07-29T13:21:12;4.50;;;4.10;;
32912;SDS011;19266;45.580;-122.680;2022-07-29T13:23:41;6.65;;;4.35;;
32912;SDS011;19266;45.580;-122.680;2022-07-29T13:26:10;7.50;;;4.30;;
32912;SDS011;19266;45.580;-122.680;2022-07-29T13:28:40;5.37;;;4.20;;
32912;SDS011;19266;45.580;-122.680;2022-07-29T13:31:09;4.37;;;3.90;;
32912;SDS011;19266;45.580;-122.680;2022-07-29T13:33:38;6.05;;;4.20;;
32912;SDS011;19266;45.580;-122.680;2022-07-29T13:36:07;8.28;;;4.05;;
32912;SDS011;19266;45.580;-122.680;2022-07-29T13:38:36;9.85;;;4.20;;
32912;SDS011;19266;45.580;-122.680;2022-07-29T13:41:06;8.08;;;4.20;;
32912;SDS011;19266;45.580;-122.680;2022-07-29T13:43:35;9.45;;;4.55;;
32912;SDS011;19266;45.580;-122.680;2022-07-29T13:46:04;8.18;;;4.53;;
32912;SDS011;19266;45.580;-122.680;2022-07-29T13:48:33;8.23;;;4.28;;
32912;SDS011;19266;45.580;-122.680;2022-07-29T13:51:02;8.08;;;4.12;;
32912;SDS011;19266;45.580;-122.680;2022-07-29T13:53:31;7.90;;;4.45;;
32912;SDS011;19266;45.580;-122.680;2022-07-29T13:56:00;7.55;;;4.50;;
32912;SDS011;19266;45.580;-122.680;2022-07-29T13:58:30;15.00;;;4.33;;
32912;SDS011;19266;45.580;-122.680;2022-07-29T14:00:59;6.15;;;4.00;;
32912;SDS011;19266;45.580;-122.680;2022-07-29T14:03:28;7.30;;;4.33;;
32912;SDS011;19266;45.580;-122.680;2022-07-29T14:05:57;13.08;;;4.22;;
32912;SDS011;19266;45.580;-122.680;2022-07-29T14:08:27;8.18;;;4.20;;
32912;SDS011;19266;45.580;-122.680;2022-07-29T14:10:56;5.50;;;3.90;;
32912;SDS011;19266;45.580;-122.680;2022-07-29T14:13:26;6.70;;;4.05;;
32912;SDS011;19266;45.580;-122.680;2022-07-29T14:15:55;4.85;;;3.83;;
32912;SDS011;19266;45.580;-122.680;2022-07-29T14:18:24;6.67;;;4.03;;
32912;SDS011;19266;45.580;-122.680;2022-07-29T14:20:53;6.45;;;3.90;;
32912;SDS011;19266;45.580;-122.680;2022-07-29T14:23:22;5.00;;;4.05;;
32912;SDS011;19266;45.580;-122.680;2022-07-29T14:25:51;5.67;;;3.92;;
32912;SDS011;19266;45.580;-122.680;2022-07-29T14:28:20;7.62;;;3.87;;
32912;SDS011;19266;45.580;-122.680;2022-07-29T14:30:50;4.97;;;3.95;;
32912;SDS011;19266;45.580;-122.680;2022-07-29T14:33:19;6.90;;;3.75;;
32912;SDS011;19266;45.580;-122.680;2022-07-29T14:35:48;6.90;;;3.80;;
32912;SDS011;19266;45.580;-122.680;2022-07-29T14:38:17;8.33;;;4.03;;
32912;SDS011;19266;45.580;-122.680;2022-07-29T14:40:46;6.08;;;3.67;;
32912;SDS011;19266;45.580;-122.680;2022-07-29T14:43:15;5.47;;;3.80;;
32912;SDS011;19266;45.580;-122.680;2022-07-29T14:45:44;7.35;;;3.40;;
32912;SDS011;19266;45.580;-122.680;2022-07-29T14:48:13;6.03;;;3.75;;
32912;SDS011;19266;45.580;-122.680;2022-07-29T14:50:42;6.53;;;3.90;;
32912;SDS011;19266;45.580;-122.680;2022-07-29T14:53:12;4.17;;;3.65;;
32912;SDS011;19266;45.580;-122.680;2022-07-29T14:55:41;5.47;;;3.50;;
32912;SDS011;19266;45.580;-122.680;2022-07-29T14:58:10;4.53;;;3.62;;
32912;SDS011;19266;45.580;-122.680;2022-07-29T15:00:39;4.67;;;3.60;;
32912;SDS011;19266;45.580;-122.680;2022-07-29T15:03:08;7.35;;;3.65;;
32912;SDS011;19266;45.580;-122.680;2022-07-29T15:05:38;8.05;;;3.70;;
32912;SDS011;19266;45.580;-122.680;2022-07-29T15:08:07;5.72;;;3.90;;
32912;SDS011;19266;45.580;-122.680;2022-07-29T15:10:36;6.28;;;3.52;;
32912;SDS011;19266;45.580;-122.680;2022-07-29T15:13:05;5.42;;;3.90;;
32912;SDS011;19266;45.580;-122.680;2022-07-29T15:15:34;5.58;;;3.62;;
32912;SDS011;19266;45.580;-122.680;2022-07-29T15:18:04;4.50;;;3.70;;